sensor_id;sensor_type;location;lat;lon;timestamp;temperature;humidity
13205;DHT22;6667;52.634;9.226;2022-09-03T06:59:26;17.20;99.90
13205;DHT22;6667;52.634;9.226;2022-09-03T07:01:53;17.10;99.90
13205;DHT22;6667;52.634;9.226;2022-09-03T07:04:20;17.60;99.90
13205;DHT22;6667;52.634;9.226;2022-09-03T07:06:49;17.40;99.90
13205;DHT22;6667;52.634;9.226;2022-09-03T07:09:15;17.70;99.90
13205;DHT22;6667;52.634;9.226;2022-09-03T07:11:43;17.90;99.90
13205;DHT22;6667;52.634;9.226;2022-09-03T07:14:12;18.00;99.90
13205;DHT22;6667;52.634;9.226;2022-09-03T07:16:40;18.50;99.90
13205;DHT22;6667;52.634;9.226;2022-09-03T07:19:08;18.70;99.90
13205;DHT22;6667;52.634;9.226;2022-09-03T07:21:36;18.80;99.90
13205;DHT22;6667;52.634;9.226;2022-09-03T07:24:03;19.10;99.90
13205;DHT22;6667;52.634;9.226;2022-09-03T07:26:32;19.40;99.90
13205;DHT22;6667;52.634;9.226;2022-09-03T07:28:59;19.10;99.90
13205;DHT22;6667;52.634;9.226;2022-09-03T07:31:27;19.30;99.90
13205;DHT22;6667;52.634;9.226;2022-09-03T07:33:57;19.20;99.90
13205;DHT22;6667;52.634;9.226;2022-09-03T07:36:26;18.90;99.90
13205;DHT22;6667;52.634;9.226;2022-09-03T07:38:54;19.20;99.90
13205;DHT22;6667;52.634;9.226;2022-09-03T07:41:30;19.00;99.90
13205;DHT22;6667;52.634;9.226;2022-09-03T07:43:58;19.10;99.90
13205;DHT22;6667;52.634;9.226;2022-09-03T07:46:31;19.30;99.90
13205;DHT22;6667;52.634;9.226;2022-09-03T07:49:00;19.80;99.90
13205;DHT22;6667;52.634;9.226;2022-09-03T07:51:29;19.90;99.90
13205;DHT22;6667;52.634;9.226;2022-09-03T07:53:58;20.20;99.90
13205;DHT22;6667;52.634;9.226;2022-09-03T07:56:25;20.40;99.90
13205;DHT22;6667;52.634;9.226;2022-09-03T07:58:52;20.40;99.90
13205;DHT22;6667;52.634;9.226;2022-09-03T08:01:21;20.80;99.90
13205;DHT22;6667;52.634;9.226;2022-09-03T08:03:50;20.60;99.90
13205;DHT22;6667;52.634;9.226;2022-09-03T08:06:20;20.70;99.90
13205;DHT22;6667;52.634;9.226;2022-09-03T08:08:47;21.20;99.90
13205;DHT22;6667;52.634;9.226;2022-09-03T08:11:16;22.50;99.90
13205;DHT22;6667;52.634;9.226;2022-09-03T08:13:45;22.70;99.90
13205;DHT22;6667;52.634;9.226;2022-09-03T08:16:14;22.40;99.90
13205;DHT22;6667;52.634;9.226;2022-09-03T08:18:41;22.60;99.90
13205;DHT22;6667;52.634;9.226;2022-09-03T08:21:09;22.20;99.90
13205;DHT22;6667;52.634;9.226;2022-09-03T08:23:41;22.70;99.90
13205;DHT22;6667;52.634;9.226;2022-09-03T08:26:08;23.00;99.90
13205;DHT22;6667;52.634;9.226;2022-09-03T08:28:36;22.80;99.90
13205;DHT22;6667;52.634;9.226;2022-09-03T08:31:06;23.20;99.90
13205;DHT22;6667;52.634;9.226;2022-09-03T08:33:35;23.60;99.90
13205;DHT22;6667;52.634;9.226;2022-09-03T08:36:03;23.40;99.90
13205;DHT22;6667;52.634;9.226;2022-09-03T08:38:31;23.30;99.90
13205;DHT22;6667;52.634;9.226;2022-09-03T08:41:04;23.20;99.90
13205;DHT22;6667;52.634;9.226;2022-09-03T08:43:41;23.30;99.90
13205;DHT22;6667;52.634;9.226;2022-09-03T08:46:12;23.80;99.90
13205;DHT22;6667;52.634;9.226;2022-09-03T08:48:38;24.10;99.90
13205;DHT22;6667;52.634;9.226;2022-09-03T08:51:06;24.20;99.90
13205;DHT22;6667;52.634;9.226;2022-09-03T08:53:40;24.30;99.90
13205;DHT22;6667;52.634;9.226;2022-09-03T08:56:13;24.80;99.90
13205;DHT22;6667;52.634;9.226;2022-09-03T08:58:44;24.20;99.90
13205;DHT22;6667;52.634;9.226;2022-09-03T09:01:17;24.40;99.90
13205;DHT22;6667;52.634;9.226;2022-09-03T09:03:54;24.90;99.90
13205;DHT22;6667;52.634;9.226;2022-09-03T09:06:30;24.60;99.90
13205;DHT22;6667;52.634;9.226;2022-09-03T09:09:06;24.60;99.90
13205;DHT22;6667;52.634;9.226;2022-09-03T09:11:46;25.10;99.90
13205;DHT22;6667;52.634;9.226;2022-09-03T09:14:18;25.20;99.90
13205;DHT22;6667;52.634;9.226;2022-09-03T09:16:50;24.40;99.90
13205;DHT22;6667;52.634;9.226;2022-09-03T09:19:27;24.60;99.90
13205;DHT22;6667;52.634;9.226;2022-09-03T09:22:00;24.50;99.90
13205;DHT22;6667;52.634;9.226;2022-09-03T09:24:33;24.10;99.90
13205;DHT22;6667;52.634;9.226;2022-09-03T09:27:04;24.80;99.90
13205;DHT22;6667;52.634;9.226;2022-09-03T09:29:32;25.30;99.90
13205;DHT22;6667;52.634;9.226;2022-09-03T09:32:00;24.90;99.90
13205;DHT22;6667;52.634;9.226;2022-09-03T09:34:33;24.90;99.90
13205;DHT22;6667;52.634;9.226;2022-09-03T09:37:03;24.80;99.90
13205;DHT22;6667;52.634;9.226;2022-09-03T09:39:31;24.50;99.90
13205;DHT22;6667;52.634;9.226;2022-09-03T09:41:58;24.90;99.90
13205;DHT22;6667;52.634;9.226;2022-09-03T09:44:31;25.00;99.90
13205;DHT22;6667;52.634;9.226;2022-09-03T09:47:03;25.60;99.90
13205;DHT22;6667;52.634;9.226;2022-09-03T09:49:32;24.80;99.90
13205;DHT22;6667;52.634;9.226;2022-09-03T09:52:07;25.20;99.90
13205;DHT22;6667;52.634;9.226;2022-09-03T09:54:37;25.50;99.90
13205;DHT22;6667;52.634;9.226;2022-09-03T09:57:07;25.20;99.90
13205;DHT22;6667;52.634;9.226;2022-09-03T09:59:35;25.90;99.90
13205;DHT22;6667;52.634;9.226;2022-09-03T10:02:09;25.50;99.90
13205;DHT22;6667;52.634;9.226;2022-09-03T10:04:37;25.10;99.90
13205;DHT22;6667;52.634;9.226;2022-09-03T10:07:15;25.20;99.90
13205;DHT22;6667;52.634;9.226;2022-09-03T10:09:56;25.30;99.90
13205;DHT22;6667;52.634;9.226;2022-09-03T10:12:27;25.40;99.90
13205;DHT22;6667;52.634;9.226;2022-09-03T10:14:59;25.90;99.90
13205;DHT22;6667;52.634;9.226;2022-09-03T10:17:34;26.30;99.90
13205;DHT22;6667;52.634;9.226;2022-09-03T10:20:09;25.40;99.90
13205;DHT22;6667;52.634;9.226;2022-09-03T10:22:56;25.60;99.90
13205;DHT22;6667;52.634;9.226;2022-09-03T10:25:28;25.90;99.90
13205;DHT22;6667;52.634;9.226;2022-09-03T10:27:58;26.50;99.90
13205;DHT22;6667;52.634;9.226;2022-09-03T10:30:28;26.10;99.90
13205;DHT22;6667;52.634;9.226;2022-09-03T10:33:17;26.10;99.90
13205;DHT22;6667;52.634;9.226;2022-09-03T10:35:51;26.20;99.90
13205;DHT22;6667;52.634;9.226;2022-09-03T10:38:25;25.30;99.90
13205;DHT22;6667;52.634;9.226;2022-09-03T10:41:01;25.10;99.90
13205;DHT22;6667;52.634;9.226;2022-09-03T10:43:44;25.70;99.90
13205;DHT22;6667;52.634;9.226;2022-09-03T10:46:25;26.60;99.90
13205;DHT22;6667;52.634;9.226;2022-09-03T10:49:17;26.70;99.90
13205;DHT22;6667;52.634;9.226;2022-09-03T10:51:51;26.10;99.90
13205;DHT22;6667;52.634;9.226;2022-09-03T10:54:31;25.60;99.90
13205;DHT22;6667;52.634;9.226;2022-09-03T10:57:05;26.20;99.90
13205;DHT22;6667;52.634;9.226;2022-09-03T10:59:48;26.50;99.90
13205;DHT22;6667;52.634;9.226;2022-09-03T11:02:36;26.70;99.90
13205;DHT22;6667;52.634;9.226;2022-09-03T11:05:12;26.70;99.90
13205;DHT22;6667;52.634;9.226;2022-09-03T11:07:44;26.70;99.90
13205;DHT22;6667;52.634;9.226;2022-09-03T11:10:17;26.70;99.90
13205;DHT22;6667;52.634;9.226;2022-09-03T11:12:49;26.60;99.90
13205;DHT22;6667;52.634;9.226;2022-09-03T11:15:25;25.90;99.90
13205;DHT22;6667;52.634;9.226;2022-09-03T11:17:58;26.30;99.90
13205;DHT22;6667;52.634;9.226;2022-09-03T11:20:28;26.60;99.90
13205;DHT22;6667;52.634;9.226;2022-09-03T11:22:59;26.90;99.90
13205;DHT22;6667;52.634;9.226;2022-09-03T11:25:31;26.80;99.90
13205;DHT22;6667;52.634;9.226;2022-09-03T11:28:11;26.40;99.90
13205;DHT22;6667;52.634;9.226;2022-09-03T11:30:48;26.60;99.90
13205;DHT22;6667;52.634;9.226;2022-09-03T11:33:21;26.30;99.90
13205;DHT22;6667;52.634;9.226;2022-09-03T11:35:55;26.60;99.90
13205;DHT22;6667;52.634;9.226;2022-09-03T11:38:22;27.40;99.90
13205;DHT22;6667;52.634;9.226;2022-09-03T11:40:59;26.80;99.90
13205;DHT22;6667;52.634;9.226;2022-09-03T11:43:28;26.10;99.90
13205;DHT22;6667;52.634;9.226;2022-09-03T11:46:08;26.10;99.90
13205;DHT22;6667;52.634;9.226;2022-09-03T11:48:41;26.10;99.90
13205;DHT22;6667;52.634;9.226;2022-09-03T11:51:28;26.40;99.90
13205;DHT22;6667;52.634;9.226;2022-09-03T11:53:57;26.30;99.90
13205;DHT22;6667;52.634;9.226;2022-09-03T11:56:24;26.00;99.90
13205;DHT22;6667;52.634;9.226;2022-09-03T11:59:00;26.10;99.90
13205;DHT22;6667;52.634;9.226;2022-09-03T12:01:28;26.40;99.90
13205;DHT22;6667;52.634;9.226;2022-09-03T12:03:59;27.00;99.90
13205;DHT22;6667;52.634;9.226;2022-09-03T12:07:07;27.30;99.90
13205;DHT22;6667;52.634;9.226;2022-09-03T12:09:53;26.40;99.90
13205;DHT22;6667;52.634;9.226;2022-09-03T12:12:35;27.00;99.90
13205;DHT22;6667;52.634;9.226;2022-09-03T12:15:10;27.00;99.90
13205;DHT22;6667;52.634;9.226;2022-09-03T12:17:47;26.80;99.90
13205;DHT22;6667;52.634;9.226;2022-09-03T12:20:37;26.90;99.90
13205;DHT22;6667;52.634;9.226;2022-09-03T12:23:03;26.80;99.90
13205;DHT22;6667;52.634;9.226;2022-09-03T12:25:31;26.30;99.90
13205;DHT22;6667;52.634;9.226;2022-09-03T12:27:59;26.70;99.90
13205;DHT22;6667;52.634;9.226;2022-09-03T12:30:28;26.60;99.90
13205;DHT22;6667;52.634;9.226;2022-09-03T12:33:02;26.80;99.90
13205;DHT22;6667;52.634;9.226;2022-09-03T12:35:30;27.10;99.90
13205;DHT22;6667;52.634;9.226;2022-09-03T12:37:58;26.90;99.90
13205;DHT22;6667;52.634;9.226;2022-09-03T12:40:26;26.80;99.90
13205;DHT22;6667;52.634;9.226;2022-09-03T12:42:54;26.90;99.90
13205;DHT22;6667;52.634;9.226;2022-09-03T12:45:22;26.90;99.90
13205;DHT22;6667;52.634;9.226;2022-09-03T12:47:50;26.90;99.90
13205;DHT22;6667;52.634;9.226;2022-09-03T12:50:19;27.40;99.90
13205;DHT22;6667;52.634;9.226;2022-09-03T12:52:48;27.50;99.90
13205;DHT22;6667;52.634;9.226;2022-09-03T12:55:28;27.30;99.90
13205;DHT22;6667;52.634;9.226;2022-09-03T12:58:05;27.00;99.90
13205;DHT22;6667;52.634;9.226;2022-09-03T13:00:36;26.80;99.90
13205;DHT22;6667;52.634;9.226;2022-09-03T13:03:05;27.00;99.90
13205;DHT22;6667;52.634;9.226;2022-09-03T13:05:35;27.10;99.90
13205;DHT22;6667;52.634;9.226;2022-09-03T13:08:05;26.70;99.90
13205;DHT22;6667;52.634;9.226;2022-09-03T13:10:37;26.90;99.90
13205;DHT22;6667;52.634;9.226;2022-09-03T13:13:18;27.20;99.90
13205;DHT22;6667;52.634;9.226;2022-09-03T13:16:04;26.80;99.90
13205;DHT22;6667;52.634;9.226;2022-09-03T13:18:39;26.70;99.90
13205;DHT22;6667;52.634;9.226;2022-09-03T13:21:14;26.80;99.90
13205;DHT22;6667;52.634;9.226;2022-09-03T13:23:55;26.40;99.90
13205;DHT22;6667;52.634;9.226;2022-09-03T13:26:31;26.50;99.90
13205;DHT22;6667;52.634;9.226;2022-09-03T13:29:29;26.50;99.90
13205;DHT22;6667;52.634;9.226;2022-09-03T13:32:10;26.40;99.90
13205;DHT22;6667;52.634;9.226;2022-09-03T13:34:45;26.70;99.90
13205;DHT22;6667;52.634;9.226;2022-09-03T13:37:22;26.60;99.90
13205;DHT22;6667;52.634;9.226;2022-09-03T13:39:53;26.70;99.90
13205;DHT22;6667;52.634;9.226;2022-09-03T13:42:26;26.80;99.90
13205;DHT22;6667;52.634;9.226;2022-09-03T13:45:00;26.60;99.90
13205;DHT22;6667;52.634;9.226;2022-09-03T13:47:34;26.30;99.90
13205;DHT22;6667;52.634;9.226;2022-09-03T13:50:07;26.20;99.90
13205;DHT22;6667;52.634;9.226;2022-09-03T13:52:50;26.50;99.90
13205;DHT22;6667;52.634;9.226;2022-09-03T13:55:25;26.50;99.90
13205;DHT22;6667;52.634;9.226;2022-09-03T13:57:56;26.30;99.90
13205;DHT22;6667;52.634;9.226;2022-09-03T14:00:29;26.50;99.90
13205;DHT22;6667;52.634;9.226;2022-09-03T14:03:05;26.30;99.90
13205;DHT22;6667;52.634;9.226;2022-09-03T14:05:40;26.50;99.90
13205;DHT22;6667;52.634;9.226;2022-09-03T14:08:19;26.50;99.90
13205;DHT22;6667;52.634;9.226;2022-09-03T14:10:58;26.10;99.90
13205;DHT22;6667;52.634;9.226;2022-09-03T14:13:41;25.80;99.90
13205;DHT22;6667;52.634;9.226;2022-09-03T14:16:23;25.50;99.90
13205;DHT22;6667;52.634;9.226;2022-09-03T14:18:54;25.90;99.90
13205;DHT22;6667;52.634;9.226;2022-09-03T14:21:26;25.90;99.90
13205;DHT22;6667;52.634;9.226;2022-09-03T14:24:00;25.50;99.90
13205;DHT22;6667;52.634;9.226;2022-09-03T14:26:31;25.40;99.90
13205;DHT22;6667;52.634;9.226;2022-09-03T14:29:02;25.50;99.90
13205;DHT22;6667;52.634;9.226;2022-09-03T14:31:45;25.30;99.90
13205;DHT22;6667;52.634;9.226;2022-09-03T14:34:25;25.20;99.90
13205;DHT22;6667;52.634;9.226;2022-09-03T14:37:02;25.30;99.90
13205;DHT22;6667;52.634;9.226;2022-09-03T14:39:33;25.30;99.90
13205;DHT22;6667;52.634;9.226;2022-09-03T14:45:23;25.20;99.90
13205;DHT22;6667;52.634;9.226;2022-09-03T14:51:02;25.30;99.90
13205;DHT22;6667;52.634;9.226;2022-09-03T14:53:47;25.10;99.90
13205;DHT22;6667;52.634;9.226;2022-09-03T14:56:21;25.10;99.90
13205;DHT22;6667;52.634;9.226;2022-09-03T14:59:03;25.10;99.90
13205;DHT22;6667;52.634;9.226;2022-09-03T15:01:37;24.80;99.90
13205;DHT22;6667;52.634;9.226;2022-09-03T15:04:22;24.90;99.90
13205;DHT22;6667;52.634;9.226;2022-09-03T15:07:08;24.60;99.90
13205;DHT22;6667;52.634;9.226;2022-09-03T15:09:41;24.50;99.90
13205;DHT22;6667;52.634;9.226;2022-09-03T15:12:17;24.60;99.90
13205;DHT22;6667;52.634;9.226;2022-09-03T15:14:51;24.50;99.90
13205;DHT22;6667;52.634;9.226;2022-09-03T15:17:49;24.60;99.90
13205;DHT22;6667;52.634;9.226;2022-09-03T15:20:21;24.50;99.90
13205;DHT22;6667;52.634;9.226;2022-09-03T15:23:10;24.50;99.90
13205;DHT22;6667;52.634;9.226;2022-09-03T15:25:53;24.50;99.90
13205;DHT22;6667;52.634;9.226;2022-09-03T15:28:42;24.40;99.90
13205;DHT22;6667;52.634;9.226;2022-09-03T15:31:16;24.40;99.90
13205;DHT22;6667;52.634;9.226;2022-09-03T15:33:51;24.30;99.90
13205;DHT22;6667;52.634;9.226;2022-09-03T15:36:21;24.30;99.90
13205;DHT22;6667;52.634;9.226;2022-09-03T15:38:54;24.20;99.90
13205;DHT22;6667;52.634;9.226;2022-09-03T15:41:33;24.20;99.90
13205;DHT22;6667;52.634;9.226;2022-09-03T15:44:02;24.10;99.90
13205;DHT22;6667;52.634;9.226;2022-09-03T15:46:40;24.00;99.90
13205;DHT22;6667;52.634;9.226;2022-09-03T15:49:22;23.90;99.90
13205;DHT22;6667;52.634;9.226;2022-09-03T15:51:59;23.90;99.90
13205;DHT22;6667;52.634;9.226;2022-09-03T15:54:35;23.90;99.90
13205;DHT22;6667;52.634;9.226;2022-09-03T15:57:10;23.80;99.90
13205;DHT22;6667;52.634;9.226;2022-09-03T15:59:41;23.80;99.90
13205;DHT22;6667;52.634;9.226;2022-09-03T16:02:12;23.60;99.90
13205;DHT22;6667;52.634;9.226;2022-09-03T16:04:54;23.60;99.90
13205;DHT22;6667;52.634;9.226;2022-09-03T16:07:40;23.70;99.90
13205;DHT22;6667;52.634;9.226;2022-09-03T16:10:14;23.70;99.90
13205;DHT22;6667;52.634;9.226;2022-09-03T16:12:48;23.60;99.90
13205;DHT22;6667;52.634;9.226;2022-09-03T16:15:20;23.60;99.90
13205;DHT22;6667;52.634;9.226;2022-09-03T16:17:53;23.50;99.90
13205;DHT22;6667;52.634;9.226;2022-09-03T16:20:26;23.40;99.90
13205;DHT22;6667;52.634;9.226;2022-09-03T16:23:01;23.40;99.90
13205;DHT22;6667;52.634;9.226;2022-09-03T16:25:33;23.50;99.90
13205;DHT22;6667;52.634;9.226;2022-09-03T16:28:12;23.40;99.90
13205;DHT22;6667;52.634;9.226;2022-09-03T16:30:49;23.30;99.90
13205;DHT22;6667;52.634;9.226;2022-09-03T16:33:21;23.20;99.90
13205;DHT22;6667;52.634;9.226;2022-09-03T16:35:56;23.20;99.90
13205;DHT22;6667;52.634;9.226;2022-09-03T16:38:33;23.10;99.90
13205;DHT22;6667;52.634;9.226;2022-09-03T16:41:12;23.10;99.90
13205;DHT22;6667;52.634;9.226;2022-09-03T16:43:45;23.10;99.90
13205;DHT22;6667;52.634;9.226;2022-09-03T16:46:21;23.10;99.90
13205;DHT22;6667;52.634;9.226;2022-09-03T16:49:01;23.00;99.90
13205;DHT22;6667;52.634;9.226;2022-09-03T16:51:40;23.00;99.90
13205;DHT22;6667;52.634;9.226;2022-09-03T16:54:29;22.90;99.90
13205;DHT22;6667;52.634;9.226;2022-09-03T16:57:15;22.90;99.90
13205;DHT22;6667;52.634;9.226;2022-09-03T17:00:02;22.80;99.90
13205;DHT22;6667;52.634;9.226;2022-09-03T17:02:47;22.70;99.90
13205;DHT22;6667;52.634;9.226;2022-09-03T17:05:30;22.70;99.90
13205;DHT22;6667;52.634;9.226;2022-09-03T17:08:10;22.60;99.90
13205;DHT22;6667;52.634;9.226;2022-09-03T17:10:43;22.50;99.90
13205;DHT22;6667;52.634;9.226;2022-09-03T17:13:29;22.50;99.90
13205;DHT22;6667;52.634;9.226;2022-09-03T17:16:09;22.40;99.90
13205;DHT22;6667;52.634;9.226;2022-09-03T17:18:47;22.30;99.90
13205;DHT22;6667;52.634;9.226;2022-09-03T17:21:22;22.30;99.90
13205;DHT22;6667;52.634;9.226;2022-09-03T17:24:04;22.20;99.90
13205;DHT22;6667;52.634;9.226;2022-09-03T17:26:42;22.20;99.90
13205;DHT22;6667;52.634;9.226;2022-09-03T17:29:25;22.10;99.90
13205;DHT22;6667;52.634;9.226;2022-09-03T17:31:59;22.10;99.90
13205;DHT22;6667;52.634;9.226;2022-09-03T17:34:46;21.90;99.90
13205;DHT22;6667;52.634;9.226;2022-09-03T17:37:24;21.90;99.90
13205;DHT22;6667;52.634;9.226;2022-09-03T17:40:17;21.90;99.90
13205;DHT22;6667;52.634;9.226;2022-09-03T17:42:52;21.80;99.90
13205;DHT22;6667;52.634;9.226;2022-09-03T17:45:28;21.70;99.90
13205;DHT22;6667;52.634;9.226;2022-09-03T17:48:12;21.70;99.90
13205;DHT22;6667;52.634;9.226;2022-09-03T17:50:47;21.60;99.90
13205;DHT22;6667;52.634;9.226;2022-09-03T17:53:21;21.60;99.90
13205;DHT22;6667;52.634;9.226;2022-09-03T17:55:55;21.50;99.90
13205;DHT22;6667;52.634;9.226;2022-09-03T17:58:28;21.40;99.90
13205;DHT22;6667;52.634;9.226;2022-09-03T18:01:02;21.30;99.90
13205;DHT22;6667;52.634;9.226;2022-09-03T18:03:38;21.30;99.90
13205;DHT22;6667;52.634;9.226;2022-09-03T18:06:08;21.10;99.90
13205;DHT22;6667;52.634;9.226;2022-09-03T18:08:43;21.10;99.90
13205;DHT22;6667;52.634;9.226;2022-09-03T18:11:17;21.00;99.90
13205;DHT22;6667;52.634;9.226;2022-09-03T18:13:53;20.90;99.90
13205;DHT22;6667;52.634;9.226;2022-09-03T18:16:26;20.80;99.90
13205;DHT22;6667;52.634;9.226;2022-09-03T18:18:58;20.80;99.90
13205;DHT22;6667;52.634;9.226;2022-09-03T18:21:29;20.70;99.90
13205;DHT22;6667;52.634;9.226;2022-09-03T18:24:26;20.60;99.90
13205;DHT22;6667;52.634;9.226;2022-09-03T18:27:15;20.60;99.90
13205;DHT22;6667;52.634;9.226;2022-09-03T18:30:04;20.50;99.90
13205;DHT22;6667;52.634;9.226;2022-09-03T18:32:48;20.40;99.90
13205;DHT22;6667;52.634;9.226;2022-09-03T18:35:32;20.30;99.90
13205;DHT22;6667;52.634;9.226;2022-09-03T18:38:22;20.20;99.90
13205;DHT22;6667;52.634;9.226;2022-09-03T18:41:15;20.20;99.90
13205;DHT22;6667;52.634;9.226;2022-09-03T18:44:09;20.10;99.90
13205;DHT22;6667;52.634;9.226;2022-09-03T18:47:01;20.00;99.90
13205;DHT22;6667;52.634;9.226;2022-09-03T18:49:57;19.90;99.90
13205;DHT22;6667;52.634;9.226;2022-09-03T18:52:53;19.90;99.90
13205;DHT22;6667;52.634;9.226;2022-09-03T18:55:54;19.80;99.90
13205;DHT22;6667;52.634;9.226;2022-09-03T18:58:51;19.80;99.90
13205;DHT22;6667;52.634;9.226;2022-09-03T19:01:39;19.80;99.90
13205;DHT22;6667;52.634;9.226;2022-09-03T19:04:34;19.70;99.90
13205;DHT22;6667;52.634;9.226;2022-09-03T19:07:24;19.60;99.90
13205;DHT22;6667;52.634;9.226;2022-09-03T19:10:15;19.60;99.90
13205;DHT22;6667;52.634;9.226;2022-09-03T19:13:16;19.60;99.90
13205;DHT22;6667;52.634;9.226;2022-09-03T19:16:07;19.50;99.90
13205;DHT22;6667;52.634;9.226;2022-09-03T19:19:03;19.50;99.90
13205;DHT22;6667;52.634;9.226;2022-09-03T19:21:52;19.40;99.90
13205;DHT22;6667;52.634;9.226;2022-09-03T19:24:38;19.40;99.90
13205;DHT22;6667;52.634;9.226;2022-09-03T19:27:27;19.30;99.90
13205;DHT22;6667;52.634;9.226;2022-09-03T19:30:15;19.30;99.90
13205;DHT22;6667;52.634;9.226;2022-09-03T19:33:10;19.20;99.90
13205;DHT22;6667;52.634;9.226;2022-09-03T19:36:06;19.20;99.90
13205;DHT22;6667;52.634;9.226;2022-09-03T19:39:02;19.20;99.90
13205;DHT22;6667;52.634;9.226;2022-09-03T19:41:55;19.10;99.90
13205;DHT22;6667;52.634;9.226;2022-09-03T19:44:52;19.10;99.90
13205;DHT22;6667;52.634;9.226;2022-09-03T19:47:48;19.00;99.90
13205;DHT22;6667;52.634;9.226;2022-09-03T19:50:36;19.10;99.90
13205;DHT22;6667;52.634;9.226;2022-09-03T19:53:26;19.10;99.90
13205;DHT22;6667;52.634;9.226;2022-09-03T19:56:16;19.10;99.90
13205;DHT22;6667;52.634;9.226;2022-09-03T19:59:08;19.00;99.90
13205;DHT22;6667;52.634;9.226;2022-09-03T20:01:54;19.10;99.90
13205;DHT22;6667;52.634;9.226;2022-09-03T20:04:41;19.00;99.90
13205;DHT22;6667;52.634;9.226;2022-09-03T20:07:27;19.00;99.90
13205;DHT22;6667;52.634;9.226;2022-09-03T20:10:15;19.00;99.90
13205;DHT22;6667;52.634;9.226;2022-09-03T20:12:52;18.90;99.90
13205;DHT22;6667;52.634;9.226;2022-09-03T20:15:22;18.90;99.90
13205;DHT22;6667;52.634;9.226;2022-09-03T20:17:56;18.90;99.90
13205;DHT22;6667;52.634;9.226;2022-09-03T20:20:31;18.80;99.90
13205;DHT22;6667;52.634;9.226;2022-09-03T20:23:03;18.80;99.90
13205;DHT22;6667;52.634;9.226;2022-09-03T20:25:47;18.80;99.90
13205;DHT22;6667;52.634;9.226;2022-09-03T20:28:26;18.70;99.90
13205;DHT22;6667;52.634;9.226;2022-09-03T20:31:01;18.60;99.90
13205;DHT22;6667;52.634;9.226;2022-09-03T20:33:43;18.60;99.90
13205;DHT22;6667;52.634;9.226;2022-09-03T20:36:20;18.60;99.90
13205;DHT22;6667;52.634;9.226;2022-09-03T20:39:08;18.50;99.90
13205;DHT22;6667;52.634;9.226;2022-09-03T20:41:46;18.50;99.90
13205;DHT22;6667;52.634;9.226;2022-09-03T20:44:37;18.50;99.90
13205;DHT22;6667;52.634;9.226;2022-09-03T20:47:21;18.40;99.90
13205;DHT22;6667;52.634;9.226;2022-09-03T20:49:55;18.30;99.90
13205;DHT22;6667;52.634;9.226;2022-09-03T20:52:31;18.30;99.90
13205;DHT22;6667;52.634;9.226;2022-09-03T20:55:03;18.20;99.90
13205;DHT22;6667;52.634;9.226;2022-09-03T20:57:41;18.20;99.90
13205;DHT22;6667;52.634;9.226;2022-09-03T21:00:13;18.10;99.90
13205;DHT22;6667;52.634;9.226;2022-09-03T21:03:01;18.10;99.90
13205;DHT22;6667;52.634;9.226;2022-09-03T21:05:32;18.00;99.90
13205;DHT22;6667;52.634;9.226;2022-09-03T21:08:07;17.90;99.90
13205;DHT22;6667;52.634;9.226;2022-09-03T21:10:43;17.90;99.90
13205;DHT22;6667;52.634;9.226;2022-09-03T21:13:18;17.90;99.90
13205;DHT22;6667;52.634;9.226;2022-09-03T21:15:52;17.80;99.90
13205;DHT22;6667;52.634;9.226;2022-09-03T21:18:28;17.80;99.90
13205;DHT22;6667;52.634;9.226;2022-09-03T21:21:04;17.70;99.90
13205;DHT22;6667;52.634;9.226;2022-09-03T21:23:37;17.70;99.90
13205;DHT22;6667;52.634;9.226;2022-09-03T21:26:09;17.60;99.90
13205;DHT22;6667;52.634;9.226;2022-09-03T21:28:43;17.60;99.90
13205;DHT22;6667;52.634;9.226;2022-09-03T21:31:15;17.50;99.90
13205;DHT22;6667;52.634;9.226;2022-09-03T21:33:46;17.40;99.90
13205;DHT22;6667;52.634;9.226;2022-09-03T21:36:14;17.40;99.90
13205;DHT22;6667;52.634;9.226;2022-09-03T21:38:45;17.30;99.90
13205;DHT22;6667;52.634;9.226;2022-09-03T21:41:17;17.30;99.90
13205;DHT22;6667;52.634;9.226;2022-09-03T21:43:53;17.20;99.90
13205;DHT22;6667;52.634;9.226;2022-09-03T21:46:25;17.20;99.90
13205;DHT22;6667;52.634;9.226;2022-09-03T21:48:55;17.10;99.90
13205;DHT22;6667;52.634;9.226;2022-09-03T21:51:26;17.10;99.90
13205;DHT22;6667;52.634;9.226;2022-09-03T21:53:58;17.10;99.90
13205;DHT22;6667;52.634;9.226;2022-09-03T21:56:51;17.00;99.90
13205;DHT22;6667;52.634;9.226;2022-09-03T21:59:40;17.00;99.90
13205;DHT22;6667;52.634;9.226;2022-09-03T22:02:13;16.90;99.90
13205;DHT22;6667;52.634;9.226;2022-09-03T22:04:43;16.90;99.90
13205;DHT22;6667;52.634;9.226;2022-09-03T22:07:15;16.80;99.90
13205;DHT22;6667;52.634;9.226;2022-09-03T22:09:47;16.80;99.90
13205;DHT22;6667;52.634;9.226;2022-09-03T22:12:19;16.80;99.90
13205;DHT22;6667;52.634;9.226;2022-09-03T22:14:50;16.80;99.90
